Time;durP1;ratioP1;P1;durP2;ratioP2;P2;SDS_P1;SDS_P2;PMS_P1;PMS_P2;Temp;Humidity;BMP_temperature;BMP_pressure;BME280_temperature;BME280_humidity;BME280_pressure;Samples;Min_cycle;Max_cycle;Signal;HPM_P1;HPM_P2
2022/06/28 00:02:12;;;;;;;;;;;25.90;98.40;;;;;;5053209;28;20056;-60
2022/06/28 00:04:39;;;;;;;;;;;25.90;98.50;;;;;;5050365;28;19921;-60
2022/06/28 00:07:07;;;;;;;1.17;0.45;;;25.90;98.40;;;;;;5052063;28;20403;-60
2022/06/28 00:09:34;;;;;;;1.55;0.95;;;25.90;98.50;;;;;;5049200;28;20404;-55
2022/06/28 00:12:02;;;;;;;0.40;0.40;;;25.90;98.40;;;;;;5054511;28;20048;-58
2022/06/28 00:17:15;;;;;;;0.35;0.35;;;25.90;98.40;;;;;;5047962;28;20068;-60
2022/06/28 00:19:43;;;;;;;0.50;0.50;;;25.90;98.40;;;;;;5051286;28;20052;-60
2022/06/28 00:22:10;;;;;;;0.30;0.30;;;25.90;98.50;;;;;;5052899;28;20049;-58
2022/06/28 00:24:37;;;;;;;0.30;0.30;;;25.90;98.50;;;;;;5047063;28;20351;-58
2022/06/28 00:27:05;;;;;;;;;;;25.90;98.50;;;;;;5049257;28;20049;-59
2022/06/28 00:29:32;;;;;;;0.50;0.50;;;25.80;98.50;;;;;;5051268;28;19931;-58
2022/06/28 00:32:00;;;;;;;;;;;25.90;98.70;;;;;;5048705;28;20052;-59
2022/06/28 00:34:27;;;;;;;0.63;0.32;;;25.80;98.50;;;;;;5050047;28;19924;-58
2022/06/28 00:36:54;;;;;;;0.32;0.32;;;25.90;98.60;;;;;;5053187;28;20415;-59
2022/06/28 00:39:22;;;;;;;0.20;0.20;;;25.90;98.60;;;;;;5047497;28;20052;-59
2022/06/28 00:41:49;;;;;;;1.55;0.95;;;25.80;98.50;;;;;;5047088;28;20060;-59
2022/06/28 00:44:17;;;;;;;;;;;25.80;98.60;;;;;;5048217;28;20435;-59
2022/06/28 00:46:44;;;;;;;0.52;0.52;;;25.90;98.60;;;;;;5049030;28;19924;-59
2022/06/28 00:49:13;;;;;;;0.52;0.52;;;25.80;98.60;;;;;;5050678;28;20496;-58
2022/06/28 00:51:40;;;;;;;0.60;0.60;;;25.80;98.60;;;;;;5048008;28;20535;-58
2022/06/28 00:54:07;;;;;;;;;;;25.80;98.60;;;;;;5057145;28;20512;-59
2022/06/28 00:56:35;;;;;;;0.25;0.25;;;25.80;98.60;;;;;;5060156;28;20323;-59
2022/06/28 00:59:02;;;;;;;0.30;0.30;;;25.80;98.70;;;;;;5047392;28;20580;-59
2022/06/28 01:01:30;;;;;;;0.20;0.20;;;25.80;98.60;;;;;;5047330;28;20033;-60
2022/06/28 01:03:59;;;;;;;0.40;0.40;;;25.80;98.70;;;;;;5048988;28;20048;-59
2022/06/28 01:06:26;;;;;;;0.20;0.20;;;25.80;98.70;;;;;;5053491;28;20056;-59
2022/06/28 01:08:54;;;;;;;0.20;0.20;;;25.80;98.70;;;;;;5046844;28;20049;-59
2022/06/28 01:11:28;;;;;;;0.60;0.60;;;25.80;98.70;;;;;;5071860;28;20048;-59
2022/06/28 01:14:03;;;;;;;0.20;0.20;;;25.80;98.70;;;;;;5051185;28;20058;-59
2022/06/28 01:16:48;;;;;;;0.40;0.40;;;25.70;98.70;;;;;;5067145;28;20060;-59
2022/06/28 01:19:17;;;;;;;0.40;0.40;;;25.70;98.70;;;;;;5055274;28;20060;-60
2022/06/28 01:21:49;;;;;;;0.20;0.20;;;25.70;98.70;;;;;;5046902;28;20539;-58
2022/06/28 01:24:20;;;;;;;0.20;0.20;;;25.80;98.80;;;;;;5044647;28;20048;-59
2022/06/28 01:26:54;;;;;;;0.40;0.40;;;25.70;98.70;;;;;;5050456;28;20547;-58
2022/06/28 01:29:21;;;;;;;0.47;0.47;;;25.80;98.80;;;;;;5051552;28;20059;-57
2022/06/28 01:32:08;;;;;;;0.20;0.20;;;25.80;98.80;;;;;;5056404;28;20118;-57
2022/06/28 01:34:35;;;;;;;0.30;0.30;;;25.70;98.80;;;;;;5064740;28;21009;-57
2022/06/28 01:37:03;;;;;;;;;;;25.70;98.80;;;;;;5060503;28;20538;-59
2022/06/28 01:39:31;;;;;;;0.30;0.30;;;25.70;98.80;;;;;;5055583;28;19925;-59
2022/06/28 01:41:59;;;;;;;0.30;0.30;;;25.70;98.80;;;;;;5075497;28;20436;-57
2022/06/28 01:44:29;;;;;;;0.20;0.20;;;25.70;98.80;;;;;;5053475;28;20060;-59
2022/06/28 01:47:01;;;;;;;0.30;0.30;;;25.70;98.80;;;;;;5069830;28;20052;-59
2022/06/28 01:50:02;;;;;;;1.98;1.05;;;25.70;98.80;;;;;;5043086;28;20346;-59
2022/06/28 01:52:55;;;;;;;0.30;0.30;;;25.70;98.90;;;;;;5053180;28;20052;-57
2022/06/28 01:55:43;;;;;;;0.30;0.30;;;25.70;98.90;;;;;;5058846;28;20045;-58
2022/06/28 01:58:39;;;;;;;0.25;0.25;;;25.70;98.90;;;;;;5046873;28;20056;-57
2022/06/28 02:01:07;;;;;;;0.20;0.20;;;25.70;99.00;;;;;;5067839;28;20780;-58
2022/06/28 02:03:36;;;;;;;1.27;0.55;;;25.70;99.00;;;;;;5064629;28;20053;-60
2022/06/28 02:06:20;;;;;;;0.22;0.22;;;25.70;99.10;;;;;;5057928;28;20052;-57
2022/06/28 02:08:49;;;;;;;0.30;0.30;;;25.70;99.10;;;;;;5052816;28;20127;-57
2022/06/28 02:11:23;;;;;;;0.47;0.47;;;25.70;99.10;;;;;;5060364;28;20059;-60
2022/06/28 02:13:53;;;;;;;0.30;0.30;;;25.70;99.10;;;;;;5064599;28;20056;-60
2022/06/28 02:16:21;;;;;;;0.30;0.30;;;25.60;99.10;;;;;;5056486;28;20385;-59
2022/06/28 02:18:50;;;;;;;0.20;0.20;;;25.60;99.10;;;;;;5064417;28;20048;-60
2022/06/28 02:21:18;;;;;;;1.40;0.95;;;25.70;99.20;;;;;;5055870;28;20037;-59
2022/06/28 02:23:47;;;;;;;0.30;0.30;;;25.70;99.20;;;;;;5050524;28;20487;-58
2022/06/28 02:26:15;;;;;;;0.20;0.20;;;25.70;99.20;;;;;;5052954;28;20321;-59
2022/06/28 02:28:43;;;;;;;0.22;0.22;;;25.60;99.20;;;;;;5050336;28;20052;-59
2022/06/28 02:31:13;;;;;;;1.85;1.10;;;25.60;99.20;;;;;;5063310;28;20055;-58
2022/06/28 02:33:43;;;;;;;0.20;0.20;;;25.70;99.30;;;;;;5047215;28;20052;-59
2022/06/28 02:40:21;;;;;;;0.30;0.30;;;25.60;99.30;;;;;;5066381;28;20057;-59
2022/06/28 02:42:03;;;;;;;;;;;25.60;99.30;;;;;;5070220;28;20033;-60
2022/06/28 02:44:30;;;;;;;;;;;25.60;99.30;;;;;;5049801;28;19928;-59
2022/06/28 02:46:58;;;;;;;0.28;0.28;;;25.60;99.30;;;;;;5050570;28;19924;-60
2022/06/28 02:49:25;;;;;;;0.25;0.25;;;25.60;99.30;;;;;;5056691;28;20063;-59
2022/06/28 02:51:53;;;;;;;0.30;0.30;;;25.60;99.30;;;;;;5055291;28;20045;-60
2022/06/28 02:54:20;;;;;;;5.53;1.85;;;25.60;99.30;;;;;;5056390;28;20044;-59
2022/06/28 02:56:48;;;;;;;0.30;0.30;;;25.60;99.30;;;;;;5057449;28;20052;-61
2022/06/28 02:59:15;;;;;;;0.30;0.30;;;25.60;99.30;;;;;;5048211;28;20048;-59
2022/06/28 03:01:42;;;;;;;0.30;0.30;;;25.60;99.30;;;;;;5051703;28;20515;-58
2022/06/28 03:04:10;;;;;;;0.22;0.22;;;25.60;99.30;;;;;;5054569;28;20040;-60
2022/06/28 03:06:37;;;;;;;0.35;0.35;;;25.60;99.30;;;;;;5049022;28;20052;-60
2022/06/28 03:09:05;;;;;;;;;;;25.60;99.30;;;;;;5058824;28;20052;-60
2022/06/28 03:11:32;;;;;;;0.20;0.20;;;25.50;99.20;;;;;;5055380;28;19924;-59
2022/06/28 03:13:59;;;;;;;0.28;0.28;;;25.50;99.30;;;;;;5047840;28;20060;-59
2022/06/28 03:16:27;;;;;;;0.47;0.47;;;25.60;99.30;;;;;;5035366;28;20425;-60
2022/06/28 03:18:54;;;;;;;0.63;0.63;;;25.50;99.30;;;;;;5054030;28;20072;-60
2022/06/28 03:21:22;;;;;;;0.30;0.30;;;25.50;99.20;;;;;;5068099;28;20049;-60
2022/06/28 03:23:49;;;;;;;0.20;0.20;;;25.50;99.20;;;;;;5070626;28;20045;-60
2022/06/28 03:26:17;;;;;;;0.20;0.20;;;25.50;99.20;;;;;;5048893;28;20075;-60
2022/06/28 03:28:44;;;;;;;0.40;0.40;;;25.50;99.30;;;;;;5056295;28;20377;-60
2022/06/28 03:31:12;;;;;;;0.20;0.20;;;25.50;99.30;;;;;;5051529;28;20170;-60
2022/06/28 03:33:39;;;;;;;;;;;25.50;99.30;;;;;;5055038;28;20068;-60
2022/06/28 03:36:07;;;;;;;0.30;0.30;;;25.50;99.30;;;;;;5047048;28;19921;-58
2022/06/28 03:38:39;;;;;;;0.25;0.25;;;25.50;99.30;;;;;;5057009;28;20052;-60
2022/06/28 03:41:24;;;;;;;0.47;0.47;;;25.50;99.30;;;;;;5076356;28;20365;-60
2022/06/28 03:43:59;;;;;;;0.30;0.30;;;25.50;99.30;;;;;;5049079;28;20389;-60
2022/06/28 03:46:27;;;;;;;0.25;0.25;;;25.50;99.30;;;;;;5054696;28;20056;-60
2022/06/28 03:49:13;;;;;;;0.22;0.22;;;25.50;99.30;;;;;;5065945;28;20063;-60
2022/06/28 03:51:54;;;;;;;0.25;0.25;;;25.50;99.40;;;;;;5050687;28;20064;-59
2022/06/28 03:54:30;;;;;;;0.30;0.30;;;25.50;99.30;;;;;;5054144;28;20053;-60
2022/06/28 03:57:06;;;;;;;0.40;0.40;;;25.50;99.30;;;;;;5048493;28;20512;-60
2022/06/28 03:59:35;;;;;;;0.30;0.30;;;25.50;99.30;;;;;;5054515;28;20056;-58
2022/06/28 04:02:04;;;;;;;0.20;0.20;;;25.50;99.40;;;;;;5053656;28;20443;-60
2022/06/28 04:04:32;;;;;;;0.20;0.20;;;25.50;99.40;;;;;;5056862;28;20040;-60
2022/06/28 04:07:00;;;;;;;0.30;0.30;;;25.50;99.40;;;;;;5056032;28;20496;-56
2022/06/28 04:09:28;;;;;;;0.77;0.77;;;25.50;99.30;;;;;;5050709;28;20075;-59
2022/06/28 04:11:57;;;;;;;0.30;0.30;;;25.50;99.40;;;;;;5058440;28;20056;-58
2022/06/28 04:14:25;;;;;;;0.30;0.30;;;25.50;99.40;;;;;;5047700;28;20056;-58
2022/06/28 04:16:52;;;;;;;0.20;0.20;;;25.50;99.40;;;;;;5056586;28;20050;-59
2022/06/28 04:19:34;;;;;;;0.40;0.40;;;25.50;99.40;;;;;;5052892;28;20041;-53
2022/06/28 04:22:02;;;;;;;0.20;0.20;;;25.50;99.40;;;;;;5056087;28;20048;-56
2022/06/28 04:24:29;;;;;;;0.20;0.20;;;25.50;99.50;;;;;;5055771;28;20126;-59
2022/06/28 04:27:09;;;;;;;0.50;0.50;;;25.50;99.60;;;;;;5055668;28;20052;-59
2022/06/28 04:29:36;;;;;;;0.20;0.20;;;25.40;99.50;;;;;;5063191;28;20144;-57
2022/06/28 04:32:07;;;;;;;0.20;0.20;;;25.50;99.60;;;;;;5055702;28;20045;-56
2022/06/28 04:34:35;;;;;;;0.25;0.25;;;25.50;99.60;;;;;;5054830;28;20053;-58
2022/06/28 04:37:04;;;;;;;0.30;0.30;;;25.50;99.60;;;;;;5053495;28;20056;-60
2022/06/28 04:39:31;;;;;;;0.30;0.30;;;25.50;99.60;;;;;;5069563;28;20044;-58
2022/06/28 04:42:08;;;;;;;0.40;0.40;;;25.50;99.50;;;;;;5055343;28;20136;-58
2022/06/28 04:44:38;;;;;;;0.20;0.20;;;25.50;99.50;;;;;;5056734;28;20045;-60
2022/06/28 04:47:09;;;;;;;0.20;0.20;;;25.50;99.40;;;;;;5052886;28;20048;-61
2022/06/28 04:49:37;;;;;;;0.20;0.20;;;25.50;99.40;;;;;;5047950;28;20045;-59
2022/06/28 04:52:05;;;;;;;0.30;0.30;;;25.50;99.50;;;;;;5047483;28;20052;-60
2022/06/28 04:54:37;;;;;;;0.20;0.20;;;25.50;99.50;;;;;;5064166;28;20040;-59
2022/06/28 04:57:21;;;;;;;0.65;0.50;;;25.50;99.40;;;;;;5057950;28;20045;-60
2022/06/28 04:59:55;;;;;;;0.35;0.35;;;25.50;99.40;;;;;;5063214;28;20064;-60
2022/06/28 05:02:31;;;;;;;0.30;0.30;;;25.50;99.40;;;;;;5058445;28;20476;-62
2022/06/28 05:05:04;;;;;;;0.73;0.73;;;25.60;99.40;;;;;;5062726;28;20052;-56
2022/06/28 05:07:39;;;;;;;0.20;0.20;;;25.60;99.40;;;;;;5044110;28;20049;-57
2022/06/28 05:10:13;;;;;;;0.30;0.30;;;25.60;99.30;;;;;;5068384;28;20049;-57
2022/06/28 05:12:49;;;;;;;0.20;0.20;;;25.50;99.40;;;;;;5059092;28;20059;-57
2022/06/28 05:15:17;;;;;;;0.25;0.22;;;25.50;98.90;;;;;;5077994;28;20138;-61
2022/06/28 05:18:07;;;;;;;0.30;0.30;;;25.40;98.40;;;;;;5054033;28;20053;-56
2022/06/28 05:20:35;;;;;;;1.05;0.90;;;25.30;98.10;;;;;;5067473;28;20036;-61
2022/06/28 05:23:03;;;;;;;0.25;0.25;;;25.20;97.10;;;;;;5077280;28;20056;-54
2022/06/28 05:25:49;;;;;;;0.30;0.30;;;25.30;96.50;;;;;;5071901;28;20412;-59
2022/06/28 05:28:17;;;;;;;0.20;0.20;;;25.40;96.50;;;;;;5067763;28;20048;-59
2022/06/28 05:30:44;;;;;;;2.33;1.20;;;25.40;96.70;;;;;;5060523;28;20059;-58
2022/06/28 05:33:11;;;;;;;0.50;0.50;;;25.40;96.70;;;;;;5075332;28;20052;-61
2022/06/28 05:35:39;;;;;;;4.32;1.10;;;25.40;96.80;;;;;;5055850;28;20053;-59
2022/06/28 05:38:07;;;;;;;0.80;0.80;;;25.50;96.90;;;;;;5050316;28;20053;-59
2022/06/28 05:40:34;;;;;;;0.60;0.60;;;25.50;97.30;;;;;;5060765;28;20048;-58
2022/06/28 05:43:02;;;;;;;2.30;1.00;;;25.50;97.50;;;;;;5056810;28;20048;-58
2022/06/28 05:45:29;;;;;;;0.77;0.77;;;25.50;97.60;;;;;;5053612;28;20045;-59
2022/06/28 05:47:57;;;;;;;0.40;0.40;;;25.50;97.70;;;;;;5068455;28;20060;-60
2022/06/28 05:50:24;;;;;;;0.32;0.32;;;25.50;98.10;;;;;;5060231;28;20056;-62
2022/06/28 05:52:52;;;;;;;0.20;0.20;;;25.50;97.90;;;;;;5056046;28;20060;-60
2022/06/28 05:55:19;;;;;;;0.52;0.52;;;25.50;98.10;;;;;;5051590;28;20051;-57
2022/06/28 05:57:47;;;;;;;0.40;0.40;;;25.50;98.10;;;;;;5053974;28;20060;-61
2022/06/28 06:00:15;;;;;;;0.38;0.38;;;25.50;98.30;;;;;;5066068;28;20048;-62
2022/06/28 06:02:43;;;;;;;0.50;0.47;;;25.60;98.50;;;;;;5062082;28;20041;-62
2022/06/28 06:05:11;;;;;;;1.42;0.98;;;25.60;98.50;;;;;;5065171;28;20044;-62
2022/06/28 06:07:45;;;;;;;1.35;0.52;;;25.60;98.70;;;;;;5071185;28;20420;-55
2022/06/28 06:10:13;;;;;;;2.00;1.17;;;25.60;98.60;;;;;;5049929;28;20045;-57
2022/06/28 06:12:40;;;;;;;0.40;0.40;;;25.60;98.70;;;;;;5056481;28;20071;-57
2022/06/28 06:15:09;;;;;;;0.47;0.47;;;25.60;98.60;;;;;;5062013;28;20055;-57
2022/06/28 06:17:36;;;;;;;4.38;1.13;;;25.60;98.80;;;;;;5065031;28;20056;-58
2022/06/28 06:20:08;;;;;;;0.40;0.40;;;25.60;98.90;;;;;;5065195;28;20055;-56
2022/06/28 06:22:36;;;;;;;0.60;0.55;;;25.60;99.10;;;;;;5049497;28;20413;-53
2022/06/28 06:25:17;;;;;;;0.30;0.30;;;25.60;99.10;;;;;;5041257;28;20057;-56
2022/06/28 06:27:45;;;;;;;;;;;25.60;99.20;;;;;;5039722;28;20055;-57
2022/06/28 06:30:13;;;;;;;0.50;0.50;;;25.60;99.40;;;;;;5036078;28;20387;-57
2022/06/28 06:33:00;;;;;;;3.70;1.38;;;25.60;99.30;;;;;;5063743;28;20056;-54
2022/06/28 06:35:45;;;;;;;0.20;0.20;;;25.60;99.40;;;;;;5054155;28;20056;-57
2022/06/28 06:38:13;;;;;;;0.30;0.30;;;25.70;99.10;;;;;;5045885;28;20057;-60
2022/06/28 06:40:42;;;;;;;0.40;0.40;;;25.60;99.20;;;;;;5073383;28;20048;-55
2022/06/28 06:43:10;;;;;;;;;;;25.60;99.50;;;;;;5064663;28;20056;-57
2022/06/28 06:45:41;;;;;;;2.55;1.10;;;25.60;99.40;;;;;;5054041;28;20011;-56
2022/06/28 06:48:09;;;;;;;0.20;0.20;;;25.60;99.50;;;;;;5070730;28;20416;-64
2022/06/28 06:50:36;;;;;;;0.30;0.30;;;25.60;99.80;;;;;;5062935;28;20060;-55
2022/06/28 06:53:04;;;;;;;0.68;0.63;;;25.60;99.70;;;;;;5067469;28;20409;-55
2022/06/28 06:55:31;;;;;;;;;;;25.60;98.90;;;;;;5069075;28;20044;-57
2022/06/28 06:57:58;;;;;;;0.50;0.43;;;25.50;98.40;;;;;;5065105;28;19929;-56
2022/06/28 07:00:26;;;;;;;0.43;0.43;;;25.50;97.80;;;;;;5063324;28;20385;-61
2022/06/28 07:02:53;;;;;;;0.57;0.43;;;25.40;97.30;;;;;;5056808;28;20059;-57
2022/06/28 07:05:21;;;;;;;0.38;0.38;;;25.40;96.90;;;;;;5044992;28;20064;-56
2022/06/28 07:07:48;;;;;;;0.70;0.60;;;25.40;96.20;;;;;;5054197;28;20059;-54
2022/06/28 07:10:21;;;;;;;0.90;0.88;;;25.40;95.90;;;;;;5054952;28;20044;-59
2022/06/28 07:12:49;;;;;;;3.58;1.25;;;25.30;95.50;;;;;;5049184;28;20064;-57
2022/06/28 07:15:16;;;;;;;0.85;0.80;;;25.30;95.10;;;;;;5064513;28;20060;-57
2022/06/28 07:17:44;;;;;;;0.57;0.57;;;25.30;94.40;;;;;;5059336;28;20056;-57
2022/06/28 07:20:12;;;;;;;0.60;0.60;;;25.40;94.40;;;;;;5061316;28;20051;-57
2022/06/28 07:22:39;;;;;;;1.00;0.88;;;25.40;94.20;;;;;;5057431;28;20068;-56
2022/06/28 07:25:13;;;;;;;0.63;0.63;;;25.40;94.10;;;;;;5060377;28;20059;-57
2022/06/28 07:27:41;;;;;;;0.90;0.90;;;25.50;94.20;;;;;;5062423;28;20079;-57
2022/06/28 07:30:10;;;;;;;2.50;1.02;;;25.50;94.30;;;;;;5052109;28;20480;-56
2022/06/28 07:32:39;;;;;;;1.05;0.90;;;25.50;94.30;;;;;;5049418;28;20089;-55
2022/06/28 07:35:07;;;;;;;0.85;0.52;;;25.50;94.40;;;;;;5069112;28;20041;-59
2022/06/28 07:37:37;;;;;;;0.20;0.20;;;25.60;94.50;;;;;;5053543;28;20049;-56
2022/06/28 07:40:07;;;;;;;0.40;0.40;;;25.60;94.60;;;;;;5062817;28;20055;-57
2022/06/28 07:42:54;;;;;;;1.98;1.10;;;25.60;94.80;;;;;;5060471;28;20428;-57
2022/06/28 07:45:39;;;;;;;0.52;0.52;;;25.60;94.90;;;;;;5058618;28;20118;-57
2022/06/28 07:48:11;;;;;;;0.30;0.30;;;25.60;95.00;;;;;;5068331;28;20044;-59
2022/06/28 07:53:26;;;;;;;0.40;0.40;;;25.60;95.30;;;;;;5059443;28;20048;-57
2022/06/28 07:56:29;;;;;;;0.40;0.40;;;25.60;95.40;;;;;;5052056;28;20053;-57
2022/06/28 07:58:58;;;;;;;1.85;0.77;;;25.60;95.60;;;;;;5066550;28;20085;-54
2022/06/28 08:01:30;;;;;;;1.10;0.95;;;25.60;95.70;;;;;;5061086;28;20496;-57
2022/06/28 08:04:00;;;;;;;0.30;0.30;;;25.60;95.80;;;;;;5050445;28;20052;-57
2022/06/28 08:06:28;;;;;;;0.55;0.55;;;25.60;95.90;;;;;;5056636;28;20064;-59
2022/06/28 08:08:58;;;;;;;0.55;0.55;;;25.60;96.20;;;;;;5057159;28;20411;-56
2022/06/28 08:11:26;;;;;;;0.30;0.30;;;25.60;96.10;;;;;;5062037;28;20170;-57
2022/06/28 08:13:58;;;;;;;2.38;0.98;;;25.60;96.20;;;;;;5037722;28;20053;-56
2022/06/28 08:16:26;;;;;;;1.55;1.00;;;25.60;96.30;;;;;;5055379;28;20063;-56
2022/06/28 08:18:54;;;;;;;0.20;0.20;;;25.60;96.30;;;;;;5053959;28;20055;-57
2022/06/28 08:21:31;;;;;;;0.50;0.50;;;25.70;96.50;;;;;;5058760;28;20045;-54
2022/06/28 08:23:58;;;;;;;;;;;25.60;96.50;;;;;;5054906;28;20049;-57
2022/06/28 08:26:25;;;;;;;;;;;25.70;96.60;;;;;;5054301;28;19928;-57
2022/06/28 08:28:53;;;;;;;0.20;0.20;;;25.60;96.60;;;;;;5066851;28;19925;-58
2022/06/28 08:31:20;;;;;;;0.40;0.40;;;25.70;96.70;;;;;;5053980;28;20057;-56
2022/06/28 08:33:48;;;;;;;0.45;0.45;;;25.70;97.80;;;;;;5058720;28;20048;-57
2022/06/28 08:36:17;;;;;;;1.08;0.82;;;25.70;98.30;;;;;;5054380;28;20063;-60
2022/06/28 08:38:45;;;;;;;0.47;0.47;;;25.70;98.70;;;;;;5054348;28;20044;-60
2022/06/28 08:41:12;;;;;;;0.40;0.40;;;25.70;98.80;;;;;;5064793;28;20047;-56
2022/06/28 08:43:40;;;;;;;0.20;0.20;;;25.70;98.60;;;;;;5060890;28;20459;-61
2022/06/28 08:46:08;;;;;;;0.57;0.57;;;25.70;98.60;;;;;;5057476;28;20120;-58
2022/06/28 08:48:43;;;;;;;0.30;0.30;;;25.70;98.70;;;;;;5056854;28;20165;-57
2022/06/28 08:51:11;;;;;;;0.32;0.32;;;25.70;98.80;;;;;;5061380;28;20488;-57
2022/06/28 08:53:39;;;;;;;;;;;25.80;98.60;;;;;;5055863;28;20519;-59
2022/06/28 08:56:09;;;;;;;0.20;0.20;;;25.80;98.60;;;;;;5054473;28;20379;-55
2022/06/28 08:58:42;;;;;;;0.40;0.40;;;25.90;98.40;;;;;;5053488;28;20033;-57
2022/06/28 09:01:13;;;;;;;0.40;0.40;;;25.80;98.60;;;;;;5053318;28;20055;-53
2022/06/28 09:03:41;;;;;;;0.50;0.50;;;25.70;98.30;;;;;;5055304;28;20460;-55
2022/06/28 09:06:09;;;;;;;;;;;25.60;97.80;;;;;;5051834;28;20047;-52
2022/06/28 09:08:38;;;;;;;0.55;0.55;;;25.50;96.00;;;;;;5048171;28;20387;-58
2022/06/28 09:11:06;;;;;;;0.38;0.38;;;25.50;95.20;;;;;;5049821;28;20519;-57
2022/06/28 09:13:37;;;;;;;0.50;0.50;;;25.40;94.30;;;;;;5052797;28;20049;-55
2022/06/28 09:16:05;;;;;;;1.35;0.95;;;25.40;93.00;;;;;;5061043;28;20044;-58
2022/06/28 09:18:35;;;;;;;;;;;25.30;93.90;;;;;;5060792;28;20040;-57
2022/06/28 09:21:10;;;;;;;0.30;0.30;;;25.30;92.50;;;;;;5060326;28;19931;-58
2022/06/28 09:23:40;;;;;;;0.50;0.50;;;25.30;92.30;;;;;;5055826;28;20993;-62
2022/06/28 09:26:11;;;;;;;0.35;0.35;;;25.30;90.70;;;;;;5056496;28;20049;-60
2022/06/28 09:28:48;;;;;;;0.43;0.43;;;25.20;91.90;;;;;;5059214;28;20051;-61
2022/06/28 09:31:30;;;;;;;0.40;0.40;;;25.20;92.20;;;;;;5051957;28;20049;-63
2022/06/28 09:34:00;;;;;;;0.65;0.65;;;25.30;91.10;;;;;;5056055;28;20060;-57
2022/06/28 09:36:30;;;;;;;0.40;0.40;;;25.20;91.80;;;;;;5058543;28;20048;-57
2022/06/28 09:39:01;;;;;;;0.30;0.30;;;25.20;91.40;;;;;;5048788;28;20118;-60
2022/06/28 09:41:30;;;;;;;1.23;1.05;;;25.20;91.80;;;;;;5059970;28;20559;-61
2022/06/28 09:43:59;;;;;;;1.55;1.08;;;25.20;89.80;;;;;;5054841;28;20056;-64
2022/06/28 09:46:32;;;;;;;0.50;0.50;;;25.30;91.10;;;;;;5055674;28;20044;-62
2022/06/28 09:49:05;;;;;;;1.02;0.70;;;25.40;92.10;;;;;;5052432;28;20055;-63
2022/06/28 09:51:35;;;;;;;0.98;0.90;;;25.50;91.90;;;;;;5060678;28;20045;-61
2022/06/28 09:54:06;;;;;;;0.30;0.30;;;25.60;92.30;;;;;;5060491;28;20342;-61
2022/06/28 09:56:54;;;;;;;2.28;1.42;;;25.60;92.90;;;;;;5067639;28;20143;-61
2022/06/28 09:59:26;;;;;;;0.40;0.40;;;25.70;93.10;;;;;;5059715;28;20049;-60
2022/06/28 10:01:55;;;;;;;0.43;0.43;;;25.70;93.50;;;;;;5054315;28;20045;-61
2022/06/28 10:04:23;;;;;;;0.45;0.45;;;25.70;93.50;;;;;;5056701;28;20052;-59
2022/06/28 10:06:51;;;;;;;2.03;0.93;;;25.70;93.70;;;;;;5048785;28;20060;-64
2022/06/28 10:09:20;;;;;;;7.15;1.08;;;25.70;94.30;;;;;;5062830;28;20055;-61
2022/06/28 10:17:44;;;;;;;2.88;1.33;;;25.70;93.80;;;;;;5051004;28;20390;-62
2022/06/28 10:20:16;;;;;;;0.43;0.43;;;25.70;93.90;;;;;;5053124;28;20041;-61
2022/06/28 10:22:44;;;;;;;0.35;0.35;;;25.70;94.00;;;;;;5063022;28;20500;-61
2022/06/28 10:25:22;;;;;;;0.80;0.52;;;25.70;94.00;;;;;;5055286;28;20542;-60
2022/06/28 10:27:51;;;;;;;0.20;0.20;;;25.70;94.10;;;;;;5052265;28;20044;-62
2022/06/28 10:30:25;;;;;;;0.40;0.40;;;25.70;94.20;;;;;;5062127;28;20045;-63
2022/06/28 10:33:02;;;;;;;0.43;0.35;;;25.70;94.50;;;;;;5060297;28;20044;-62
2022/06/28 10:35:33;;;;;;;;;;;25.70;94.70;;;;;;5057748;28;20064;-63
2022/06/28 10:38:08;;;;;;;0.28;0.28;;;25.70;94.70;;;;;;5058187;28;20396;-61
2022/06/28 10:40:41;;;;;;;0.20;0.20;;;25.70;94.60;;;;;;5060188;28;20056;-62
2022/06/28 10:43:14;;;;;;;0.43;0.43;;;25.70;94.70;;;;;;5049903;28;20508;-63
2022/06/28 10:46:00;;;;;;;0.47;0.38;;;25.70;94.70;;;;;;5059067;28;20428;-61
2022/06/28 10:48:29;;;;;;;0.40;0.40;;;25.70;94.70;;;;;;5059252;28;20037;-62
2022/06/28 10:50:59;;;;;;;0.40;0.40;;;25.70;94.80;;;;;;5056326;28;20045;-62
2022/06/28 10:53:32;;;;;;;0.20;0.20;;;25.70;94.90;;;;;;5053242;28;20048;-62
2022/06/28 10:56:11;;;;;;;1.80;1.30;;;25.70;95.00;;;;;;5058359;28;20059;-64
2022/06/28 10:59:04;;;;;;;0.20;0.20;;;25.70;95.20;;;;;;5059107;28;20468;-64
2022/06/28 11:01:40;;;;;;;0.30;0.30;;;25.70;95.20;;;;;;5055146;28;20492;-61
2022/06/28 11:04:19;;;;;;;0.40;0.40;;;25.70;96.30;;;;;;5059686;28;20067;-62
2022/06/28 11:06:48;;;;;;;1.80;0.73;;;25.80;96.10;;;;;;5057588;28;20084;-65
2022/06/28 11:09:23;;;;;;;0.30;0.30;;;25.70;96.00;;;;;;5062754;28;20056;-61
2022/06/28 11:12:17;;;;;;;1.10;0.75;;;25.70;96.50;;;;;;5058176;28;20043;-62
2022/06/28 11:14:46;;;;;;;0.40;0.40;;;25.70;96.70;;;;;;5056551;28;20785;-62
2022/06/28 11:17:28;;;;;;;0.60;0.50;;;25.80;97.10;;;;;;5051192;28;20051;-64
2022/06/28 11:20:01;;;;;;;1.35;0.73;;;25.80;97.10;;;;;;5051722;28;20051;-63
2022/06/28 11:22:32;;;;;;;1.25;0.80;;;25.80;97.30;;;;;;5054239;28;20451;-63
2022/06/28 11:25:03;;;;;;;0.75;0.70;;;25.90;97.50;;;;;;5069364;28;20374;-64
2022/06/28 11:27:32;;;;;;;1.75;0.77;;;25.90;97.70;;;;;;5053872;28;20053;-61
2022/06/28 11:29:59;;;;;;;1.25;1.00;;;25.90;97.90;;;;;;5054287;28;20056;-63
2022/06/28 11:32:29;;;;;;;0.40;0.40;;;25.90;98.10;;;;;;5052692;28;20059;-63
2022/06/28 11:35:16;;;;;;;1.35;0.70;;;25.90;98.30;;;;;;5065743;28;20139;-63
2022/06/28 11:37:55;;;;;;;0.88;0.65;;;26.00;98.70;;;;;;5070507;28;20416;-62
2022/06/28 11:40:24;;;;;;;0.40;0.40;;;26.00;98.80;;;;;;5052460;28;20055;-63
2022/06/28 11:43:12;;;;;;;0.50;0.50;;;26.00;98.90;;;;;;5049909;28;20502;-60
2022/06/28 11:45:58;;;;;;;1.00;1.00;;;26.00;99.40;;;;;;5052710;28;20492;-63
2022/06/28 11:48:31;;;;;;;0.73;0.73;;;26.10;99.80;;;;;;5059338;28;20063;-64
2022/06/28 11:51:00;;;;;;;0.82;0.82;;;26.10;99.90;;;;;;5039093;28;20492;-64
2022/06/28 11:53:31;;;;;;;0.75;0.75;;;26.10;99.90;;;;;;5056130;28;20063;-60
2022/06/28 11:55:59;;;;;;;9.25;2.97;;;26.10;99.90;;;;;;5059365;28;20499;-62
2022/06/28 11:58:31;;;;;;;2.50;1.27;;;26.10;99.90;;;;;;5056553;28;20044;-63
2022/06/28 12:01:15;;;;;;;2.53;1.48;;;26.10;99.90;;;;;;5059609;28;20044;-63
2022/06/28 12:03:42;;;;;;;2.00;1.35;;;26.10;99.90;;;;;;5052310;28;20048;-63
2022/06/28 12:06:12;;;;;;;1.55;1.05;;;26.10;99.90;;;;;;5049246;28;20037;-63
2022/06/28 12:08:46;;;;;;;2.10;1.65;;;26.10;99.90;;;;;;5057861;28;20048;-63
2022/06/28 12:11:27;;;;;;;0.43;0.43;;;26.10;99.90;;;;;;5060052;28;20040;-62
2022/06/28 12:13:57;;;;;;;2.28;1.48;;;26.10;99.90;;;;;;5057321;28;20063;-62
2022/06/28 12:16:47;;;;;;;3.90;2.35;;;26.10;99.90;;;;;;5055688;28;20056;-63
2022/06/28 12:19:16;;;;;;;2.20;1.38;;;26.10;99.90;;;;;;5053725;28;20051;-63
2022/06/28 12:22:08;;;;;;;1.55;1.27;;;26.10;99.90;;;;;;5055075;28;20060;-63
2022/06/28 12:24:56;;;;;;;0.30;0.30;;;26.10;99.90;;;;;;5053567;28;20047;-63
2022/06/28 12:27:31;;;;;;;0.65;0.65;;;26.00;99.90;;;;;;5054509;28;20052;-62
2022/06/28 12:30:00;;;;;;;0.60;0.60;;;25.90;99.90;;;;;;5062044;28;20774;-62
2022/06/28 12:32:29;;;;;;;2.17;1.08;;;25.80;99.90;;;;;;5061765;28;20499;-62
2022/06/28 12:35:16;;;;;;;2.28;1.58;;;25.70;99.80;;;;;;5061604;28;20412;-63
2022/06/28 12:37:44;;;;;;;;;;;25.60;98.80;;;;;;5059926;28;20135;-63
2022/06/28 12:40:13;;;;;;;0.47;0.47;;;25.60;98.10;;;;;;5061276;28;20371;-63
2022/06/28 12:42:41;;;;;;;0.60;0.60;;;25.60;96.40;;;;;;5046952;28;20045;-61
2022/06/28 12:45:09;;;;;;;0.73;0.73;;;25.50;94.60;;;;;;5049464;28;20773;-62
2022/06/28 12:47:40;;;;;;;0.75;0.40;;;25.50;93.80;;;;;;5049812;28;20060;-62
2022/06/28 12:50:13;;;;;;;0.43;0.43;;;25.50;79.10;;;;;;5045377;28;20132;-61
2022/06/28 12:52:43;;;;;;;0.50;0.50;;;25.40;74.10;;;;;;5046624;28;20055;-62
2022/06/28 12:55:10;;;;;;;0.52;0.52;;;25.40;73.90;;;;;;5047324;28;20351;-62
2022/06/28 12:57:38;;;;;;;0.88;0.82;;;25.30;72.20;;;;;;5057619;28;20037;-62
2022/06/28 13:00:09;;;;;;;0.38;0.38;;;25.40;72.20;;;;;;5052574;28;20069;-66
2022/06/28 13:02:37;;;;;;;0.30;0.30;;;25.40;69.30;;;;;;5063748;28;20048;-61
2022/06/28 13:05:05;;;;;;;0.40;0.40;;;25.40;69.90;;;;;;5061293;28;20044;-66
2022/06/28 13:07:33;;;;;;;0.52;0.52;;;25.40;69.10;;;;;;5052490;28;20056;-61
2022/06/28 13:10:00;;;;;;;;;;;25.50;68.10;;;;;;5047991;28;20436;-61
2022/06/28 13:12:28;;;;;;;0.75;0.75;;;25.50;70.10;;;;;;5071418;28;19932;-57
2022/06/28 13:14:55;;;;;;;;;;;25.60;68.80;;;;;;5056611;28;20578;-62
2022/06/28 13:17:23;;;;;;;;;;;25.60;67.60;;;;;;5056393;28;20403;-60
2022/06/28 13:19:50;;;;;;;0.20;0.20;;;25.50;67.40;;;;;;5055058;28;20300;-63
2022/06/28 13:22:38;;;;;;;0.30;0.30;;;25.50;67.90;;;;;;5048254;28;20045;-61
2022/06/28 13:25:06;;;;;;;0.30;0.30;;;25.50;68.30;;;;;;5051946;28;20051;-63
2022/06/28 13:27:35;;;;;;;1.55;1.02;;;25.50;68.50;;;;;;5047151;28;20049;-63
2022/06/28 13:30:07;;;;;;;0.32;0.32;;;25.50;68.60;;;;;;5058545;28;20044;-61